sensor_id;sensor_type;location;lat;lon;timestamp;pressure;altitude;pressure_sealevel;temperature;humidity
73306;BME280;61530;51.158;0.880;2023-05-12T00:00:22;1015.44;;;9.0625;37.9994
73306;BME280;61530;51.158;0.880;2023-05-12T00:01:27;1015.44;;;9.125;37.9364
73306;BME280;61530;51.158;0.880;2023-05-12T00:02:30;1015.48;;;9.125;38.069
73306;BME280;61530;51.158;0.880;2023-05-12T00:03:34;1015.48;;;9.0625;38.213
73306;BME280;61530;51.158;0.880;2023-05-12T00:04:37;1015.51;;;9.1875;38.5118
73306;BME280;61530;51.158;0.880;2023-05-12T00:05:43;1015.55;;;9.25;37.7854
73306;BME280;61530;51.158;0.880;2023-05-12T00:06:46;1015.55;;;9.375;37.7507
73306;BME280;61530;51.158;0.880;2023-05-12T00:07:50;1015.56;;;9.25;37.7107
73306;BME280;61530;51.158;0.880;2023-05-12T00:08:54;1015.56;;;9.3125;37.86
73306;BME280;61530;51.158;0.880;2023-05-12T00:09:59;1015.57;;;9.375;37.6926
73306;BME280;61530;51.158;0.880;2023-05-12T00:11:03;1015.54;;;9.4375;37.5894
73306;BME280;61530;51.158;0.880;2023-05-12T00:12:06;1015.53;;;9.3125;38.1368
73306;BME280;61530;51.158;0.880;2023-05-12T00:13:09;1015.55;;;9.375;37.8024
73306;BME280;61530;51.158;0.880;2023-05-12T00:14:15;1015.54;;;9.4375;37.3524
73306;BME280;61530;51.158;0.880;2023-05-12T00:15:19;1015.53;;;9.4375;38.0499
73306;BME280;61530;51.158;0.880;2023-05-12T00:16:22;1015.52;;;9.4375;37.5147
73306;BME280;61530;51.158;0.880;2023-05-12T00:17:26;1015.55;;;9.375;38.1769
73306;BME280;61530;51.158;0.880;2023-05-12T00:18:31;1015.56;;;9.4375;38.0617
73306;BME280;61530;51.158;0.880;2023-05-12T00:19:35;1015.56;;;9.5;38.1193
73306;BME280;61530;51.158;0.880;2023-05-12T00:20:38;1015.54;;;9.5;37.8942
73306;BME280;61530;51.158;0.880;2023-05-12T00:21:41;1015.53;;;9.5;38.0091
73306;BME280;61530;51.158;0.880;2023-05-12T00:22:47;1015.57;;;9.625;37.9229
73306;BME280;61530;51.158;0.880;2023-05-12T00:23:51;1015.54;;;9.625;38.5332
73306;BME280;61530;51.158;0.880;2023-05-12T00:24:54;1015.54;;;9.625;38.3027
73306;BME280;61530;51.158;0.880;2023-05-12T00:25:57;1015.52;;;9.6875;38.4872
73306;BME280;61530;51.158;0.880;2023-05-12T00:27:04;1015.53;;;9.75;38.5098
73306;BME280;61530;51.158;0.880;2023-05-12T00:28:06;1015.51;;;9.8125;38.181
73306;BME280;61530;51.158;0.880;2023-05-12T00:29:10;1015.51;;;9.75;38.3997
73306;BME280;61530;51.158;0.880;2023-05-12T00:30:14;1015.51;;;9.875;38.3186
73306;BME280;61530;51.158;0.880;2023-05-12T00:31:19;1015.52;;;9.875;38.3474
73306;BME280;61530;51.158;0.880;2023-05-12T00:32:23;1015.5;;;9.875;38.8091
73306;BME280;61530;51.158;0.880;2023-05-12T00:33:26;1015.48;;;9.875;38.1336
73306;BME280;61530;51.158;0.880;2023-05-12T00:34:29;1015.49;;;10.0;38.7911
73306;BME280;61530;51.158;0.880;2023-05-12T00:35:35;1015.5;;;10.0;38.5028
73306;BME280;61530;51.158;0.880;2023-05-12T00:36:39;1015.51;;;10.0625;38.2545
73306;BME280;61530;51.158;0.880;2023-05-12T00:37:43;1015.53;;;10.0625;38.358
73306;BME280;61530;51.158;0.880;2023-05-12T00:38:45;1015.51;;;10.1875;38.5771
73306;BME280;61530;51.158;0.880;2023-05-12T00:39:51;1015.54;;;10.1875;38.6634
73306;BME280;61530;51.158;0.880;2023-05-12T00:40:55;1015.57;;;10.25;38.6403
73306;BME280;61530;51.158;0.880;2023-05-12T00:41:58;1015.57;;;10.25;38.4902
73306;BME280;61530;51.158;0.880;2023-05-12T00:43:02;1015.59;;;10.3125;39.062
73306;BME280;61530;51.158;0.880;2023-05-12T00:44:07;1015.61;;;10.375;39.2003
73306;BME280;61530;51.158;0.880;2023-05-12T00:45:11;1015.62;;;10.375;39.4833
73306;BME280;61530;51.158;0.880;2023-05-12T00:46:14;1015.62;;;10.3125;38.958
73306;BME280;61530;51.158;0.880;2023-05-12T00:47:17;1015.61;;;10.4375;39.4602
73306;BME280;61530;51.158;0.880;2023-05-12T00:48:23;1015.63;;;10.5;39.9101
73306;BME280;61530;51.158;0.880;2023-05-12T00:49:27;1015.64;;;10.4375;39.5061
73306;BME280;61530;51.158;0.880;2023-05-12T00:50:30;1015.63;;;10.5;39.5583
73306;BME280;61530;51.158;0.880;2023-05-12T00:51:34;1015.64;;;10.5;39.46
73306;BME280;61530;51.158;0.880;2023-05-12T00:52:39;1015.61;;;10.5625;39.598
73306;BME280;61530;51.158;0.880;2023-05-12T00:53:43;1015.64;;;10.5625;39.2288
73306;BME280;61530;51.158;0.880;2023-05-12T00:54:47;1015.6;;;10.5625;39.7769
73306;BME280;61530;51.158;0.880;2023-05-12T00:55:50;1015.6;;;10.625;39.0839
73306;BME280;61530;51.158;0.880;2023-05-12T00:56:56;1015.58;;;10.6875;38.564
73306;BME280;61530;51.158;0.880;2023-05-12T00:57:59;1015.63;;;10.6875;38.8065
73306;BME280;61530;51.158;0.880;2023-05-12T00:59:02;1015.62;;;10.75;38.4831
73306;BME280;61530;51.158;0.880;2023-05-12T01:00:07;1015.63;;;10.75;38.9217
73306;BME280;61530;51.158;0.880;2023-05-12T01:01:11;1015.61;;;10.6875;38.876
73306;BME280;61530;51.158;0.880;2023-05-12T01:02:14;1015.61;;;10.75;38.7195
73306;BME280;61530;51.158;0.880;2023-05-12T01:03:18;1015.63;;;10.6875;38.7191
73306;BME280;61530;51.158;0.880;2023-05-12T01:04:21;1015.61;;;10.6875;38.9044
73306;BME280;61530;51.158;0.880;2023-05-12T01:05:33;1015.61;;;10.6875;39.4422
73306;BME280;61530;51.158;0.880;2023-05-12T01:06:36;1015.6;;;10.75;39.4191
73306;BME280;61530;51.158;0.880;2023-05-12T01:07:34;1015.62;;;10.75;39.4019
73306;BME280;61530;51.158;0.880;2023-05-12T01:08:38;1015.65;;;10.8125;39.1532
73306;BME280;61530;51.158;0.880;2023-05-12T01:09:43;1015.65;;;10.75;39.5348
73306;BME280;61530;51.158;0.880;2023-05-12T01:10:46;1015.66;;;10.8125;39.5632
73306;BME280;61530;51.158;0.880;2023-05-12T01:11:50;1015.66;;;10.8125;38.7774
73306;BME280;61530;51.158;0.880;2023-05-12T01:12:53;1015.68;;;10.8125;38.5513
73306;BME280;61530;51.158;0.880;2023-05-12T01:13:59;1015.68;;;10.875;38.9562
73306;BME280;61530;51.158;0.880;2023-05-12T01:15:04;1015.68;;;10.875;38.9212
73306;BME280;61530;51.158;0.880;2023-05-12T01:16:08;1015.65;;;10.875;37.6613
73306;BME280;61530;51.158;0.880;2023-05-12T01:17:11;1015.66;;;10.8125;39.7257
73306;BME280;61530;51.158;0.880;2023-05-12T01:18:18;1015.66;;;10.875;39.7654
73306;BME280;61530;51.158;0.880;2023-05-12T01:19:37;1015.66;;;10.875;39.7133
73306;BME280;61530;51.158;0.880;2023-05-12T01:20:25;1015.66;;;10.875;39.3434
73306;BME280;61530;51.158;0.880;2023-05-12T01:21:25;1015.64;;;10.9375;38.3151
73306;BME280;61530;51.158;0.880;2023-05-12T01:22:32;1015.67;;;10.875;38.7081
73306;BME280;61530;51.158;0.880;2023-05-12T01:23:38;1015.66;;;10.9375;37.043
73306;BME280;61530;51.158;0.880;2023-05-12T01:24:45;1015.68;;;10.9375;40.0887
73306;BME280;61530;51.158;0.880;2023-05-12T01:25:42;1015.67;;;10.9375;40.0483
73306;BME280;61530;51.158;0.880;2023-05-12T01:26:47;1015.68;;;10.9375;40.7344
73306;BME280;61530;51.158;0.880;2023-05-12T01:27:51;1015.67;;;10.9375;40.1521
73306;BME280;61530;51.158;0.880;2023-05-12T01:28:54;1015.66;;;11.0;39.4304
73306;BME280;61530;51.158;0.880;2023-05-12T01:29:59;1015.63;;;10.9375;38.6572
73306;BME280;61530;51.158;0.880;2023-05-12T01:31:04;1015.64;;;11.0625;38.9332
73306;BME280;61530;51.158;0.880;2023-05-12T01:32:07;1015.66;;;11.0625;39.6494
73306;BME280;61530;51.158;0.880;2023-05-12T01:33:10;1015.67;;;11.0625;39.2336
73306;BME280;61530;51.158;0.880;2023-05-12T01:34:14;1015.64;;;11.0625;39.0488
73306;BME280;61530;51.158;0.880;2023-05-12T01:35:19;1015.67;;;11.125;39.6559
73306;BME280;61530;51.158;0.880;2023-05-12T01:36:22;1015.65;;;11.0;39.459
73306;BME280;61530;51.158;0.880;2023-05-12T01:37:26;1015.65;;;11.0625;38.6848
73306;BME280;61530;51.158;0.880;2023-05-12T01:38:29;1015.64;;;11.0625;38.9789
73306;BME280;61530;51.158;0.880;2023-05-12T01:39:36;1015.68;;;11.125;38.9095
73306;BME280;61530;51.158;0.880;2023-05-12T01:40:39;1015.7;;;11.0625;38.2452
73306;BME280;61530;51.158;0.880;2023-05-12T01:41:42;1015.7;;;11.0625;39.291
73306;BME280;61530;51.158;0.880;2023-05-12T01:42:45;1015.71;;;11.125;39.5695
73306;BME280;61530;51.158;0.880;2023-05-12T01:43:51;1015.71;;;11.0625;39.0715
73306;BME280;61530;51.158;0.880;2023-05-12T01:44:54;1015.71;;;11.0625;38.6781
73306;BME280;61530;51.158;0.880;2023-05-12T01:45:58;1015.74;;;11.0625;38.9669
73306;BME280;61530;51.158;0.880;2023-05-12T01:47:02;1015.74;;;11.0625;38.6381
73306;BME280;61530;51.158;0.880;2023-05-12T01:48:07;1015.72;;;11.0625;38.725
73306;BME280;61530;51.158;0.880;2023-05-12T01:49:11;1015.74;;;11.125;38.6267
73306;BME280;61530;51.158;0.880;2023-05-12T01:50:14;1015.72;;;11.0625;38.5527
73306;BME280;61530;51.158;0.880;2023-05-12T01:51:18;1015.68;;;11.125;39.2237
73306;BME280;61530;51.158;0.880;2023-05-12T01:52:23;1015.69;;;11.0;38.6814
73306;BME280;61530;51.158;0.880;2023-05-12T01:53:26;1015.72;;;10.875;39.7484
73306;BME280;61530;51.158;0.880;2023-05-12T01:54:30;1015.76;;;11.0;40.2329
73306;BME280;61530;51.158;0.880;2023-05-12T01:55:33;1015.74;;;11.0;39.3393
73306;BME280;61530;51.158;0.880;2023-05-12T01:56:39;1015.78;;;10.875;40.9068
73306;BME280;61530;51.158;0.880;2023-05-12T01:57:43;1015.77;;;10.9375;41.3846
73306;BME280;61530;51.158;0.880;2023-05-12T01:58:46;1015.77;;;10.875;39.7553
73306;BME280;61530;51.158;0.880;2023-05-12T01:59:49;1015.78;;;10.8125;40.9693
73306;BME280;61530;51.158;0.880;2023-05-12T02:00:55;1015.79;;;10.8125;42.0554
73306;BME280;61530;51.158;0.880;2023-05-12T02:01:58;1015.75;;;10.75;41.0669
73306;BME280;61530;51.158;0.880;2023-05-12T02:03:02;1015.76;;;10.75;42.4274
73306;BME280;61530;51.158;0.880;2023-05-12T02:04:05;1015.77;;;10.75;42.641
73306;BME280;61530;51.158;0.880;2023-05-12T02:05:11;1015.77;;;10.75;41.1996
73306;BME280;61530;51.158;0.880;2023-05-12T02:06:15;1015.78;;;10.8125;39.1902
73306;BME280;61530;51.158;0.880;2023-05-12T02:07:18;1015.78;;;10.8125;40.2733
73306;BME280;61530;51.158;0.880;2023-05-12T02:08:22;1015.8;;;10.75;41.2693
73306;BME280;61530;51.158;0.880;2023-05-12T02:09:27;1015.8;;;10.75;41.9647
73306;BME280;61530;51.158;0.880;2023-05-12T02:10:30;1015.84;;;10.625;41.5504
73306;BME280;61530;51.158;0.880;2023-05-12T02:11:34;1015.84;;;10.625;42.1981
73306;BME280;61530;51.158;0.880;2023-05-12T02:12:37;1015.87;;;10.5;44.4963
73306;BME280;61530;51.158;0.880;2023-05-12T02:13:43;1015.88;;;10.375;42.9713
73306;BME280;61530;51.158;0.880;2023-05-12T02:14:47;1015.86;;;10.4375;43.9146
73306;BME280;61530;51.158;0.880;2023-05-12T02:15:50;1015.85;;;10.3125;43.1951
73306;BME280;61530;51.158;0.880;2023-05-12T02:16:53;1015.88;;;10.375;43.1773
73306;BME280;61530;51.158;0.880;2023-05-12T02:17:59;1015.86;;;10.3125;41.359
73306;BME280;61530;51.158;0.880;2023-05-12T02:19:03;1015.88;;;10.25;42.6978
73306;BME280;61530;51.158;0.880;2023-05-12T02:20:07;1015.89;;;10.1875;41.3193
73306;BME280;61530;51.158;0.880;2023-05-12T02:21:09;1015.89;;;10.25;41.4692
73306;BME280;61530;51.158;0.880;2023-05-12T02:22:15;1015.9;;;10.25;41.6019
73306;BME280;61530;51.158;0.880;2023-05-12T02:23:19;1015.87;;;10.25;42.0557
73306;BME280;61530;51.158;0.880;2023-05-12T02:24:22;1015.91;;;10.1875;41.9572
73306;BME280;61530;51.158;0.880;2023-05-12T02:25:25;1015.85;;;10.3125;42.4887
73306;BME280;61530;51.158;0.880;2023-05-12T02:26:31;1015.89;;;10.1875;45.8961
73306;BME280;61530;51.158;0.880;2023-05-12T02:27:34;1015.88;;;10.1875;44.2743
73306;BME280;61530;51.158;0.880;2023-05-12T02:28:38;1015.9;;;10.1875;45.152
73306;BME280;61530;51.158;0.880;2023-05-12T02:29:41;1015.9;;;10.125;43.2413
73306;BME280;61530;51.158;0.880;2023-05-12T02:30:48;1015.95;;;10.1875;42.4803
73306;BME280;61530;51.158;0.880;2023-05-12T02:31:51;1015.97;;;10.25;42.2903
73306;BME280;61530;51.158;0.880;2023-05-12T02:32:54;1015.95;;;10.1875;42.2619
73306;BME280;61530;51.158;0.880;2023-05-12T02:33:57;1015.95;;;10.125;41.5898
73306;BME280;61530;51.158;0.880;2023-05-12T02:35:04;1015.94;;;10.125;42.7886
73306;BME280;61530;51.158;0.880;2023-05-12T02:36:07;1015.97;;;10.125;43.0058
73306;BME280;61530;51.158;0.880;2023-05-12T02:37:10;1015.97;;;10.1875;42.0036
73306;BME280;61530;51.158;0.880;2023-05-12T02:38:13;1015.98;;;10.1875;42.3546
73306;BME280;61530;51.158;0.880;2023-05-12T02:39:19;1016.01;;;10.1875;41.9866
73306;BME280;61530;51.158;0.880;2023-05-12T02:40:23;1015.99;;;10.1875;40.8487
73306;BME280;61530;51.158;0.880;2023-05-12T02:41:26;1015.99;;;10.25;41.4643
73306;BME280;61530;51.158;0.880;2023-05-12T02:42:29;1016.03;;;10.0625;42.1931
73306;BME280;61530;51.158;0.880;2023-05-12T02:43:35;1016.03;;;10.125;41.2058
73306;BME280;61530;51.158;0.880;2023-05-12T02:44:38;1016.07;;;10.1875;40.9183
73306;BME280;61530;51.158;0.880;2023-05-12T02:45:42;1016.02;;;10.1875;40.8143
73306;BME280;61530;51.158;0.880;2023-05-12T02:46:45;1016.06;;;10.25;41.934
73306;BME280;61530;51.158;0.880;2023-05-12T02:47:51;1016.03;;;10.25;41.3648
73306;BME280;61530;51.158;0.880;2023-05-12T02:48:55;1016.07;;;10.1875;41.6243
73306;BME280;61530;51.158;0.880;2023-05-12T02:49:58;1016.06;;;10.125;41.0427
73306;BME280;61530;51.158;0.880;2023-05-12T02:51:02;1016.05;;;10.125;41.5947
73306;BME280;61530;51.158;0.880;2023-05-12T02:52:07;1016.07;;;10.1875;42.1002
73306;BME280;61530;51.158;0.880;2023-05-12T02:53:10;1016.07;;;10.125;44.2374
73306;BME280;61530;51.158;0.880;2023-05-12T02:54:14;1016.06;;;10.125;44.8957
73306;BME280;61530;51.158;0.880;2023-05-12T02:55:18;1016.04;;;10.1875;43.5076
73306;BME280;61530;51.158;0.880;2023-05-12T02:56:23;1016.04;;;10.1875;44.1839
73306;BME280;61530;51.158;0.880;2023-05-12T02:57:27;1016.07;;;10.0625;43.2169
73306;BME280;61530;51.158;0.880;2023-05-12T02:58:30;1016.05;;;10.0625;42.5241
73306;BME280;61530;51.158;0.880;2023-05-12T02:59:33;1016.05;;;10.0625;42.296
73306;BME280;61530;51.158;0.880;2023-05-12T03:00:39;1016.04;;;10.125;42.2155
73306;BME280;61530;51.158;0.880;2023-05-12T03:01:42;1016.04;;;10.0625;42.4492
73306;BME280;61530;51.158;0.880;2023-05-12T03:02:46;1016.01;;;10.125;42.7052
73306;BME280;61530;51.158;0.880;2023-05-12T03:03:49;1016.01;;;10.0625;42.4153
73306;BME280;61530;51.158;0.880;2023-05-12T03:04:55;1015.99;;;10.125;41.6298
73306;BME280;61530;51.158;0.880;2023-05-12T03:05:59;1016.04;;;10.0625;42.9128
73306;BME280;61530;51.158;0.880;2023-05-12T03:07:02;1016.0;;;10.0625;40.8482
73306;BME280;61530;51.158;0.880;2023-05-12T03:08:06;1015.99;;;10.125;40.3135
73306;BME280;61530;51.158;0.880;2023-05-12T03:09:11;1015.99;;;10.1875;41.4802
73306;BME280;61530;51.158;0.880;2023-05-12T03:10:15;1016.0;;;10.125;42.2622
73306;BME280;61530;51.158;0.880;2023-05-12T03:11:18;1016.0;;;10.1875;41.8368
73306;BME280;61530;51.158;0.880;2023-05-12T03:12:21;1015.99;;;10.1875;41.5097
73306;BME280;61530;51.158;0.880;2023-05-12T03:13:27;1015.96;;;10.1875;39.3124
73306;BME280;61530;51.158;0.880;2023-05-12T03:14:31;1015.97;;;10.1875;37.9822
73306;BME280;61530;51.158;0.880;2023-05-12T03:15:34;1016.0;;;10.25;40.6131
73306;BME280;61530;51.158;0.880;2023-05-12T03:16:37;1016.02;;;10.1875;41.0963
73306;BME280;61530;51.158;0.880;2023-05-12T03:17:43;1015.97;;;10.3125;39.5768
73306;BME280;61530;51.158;0.880;2023-05-12T03:18:46;1016.04;;;10.25;41.5372
73306;BME280;61530;51.158;0.880;2023-05-12T03:19:50;1016.01;;;10.3125;41.4754
73306;BME280;61530;51.158;0.880;2023-05-12T03:20:53;1016.02;;;10.1875;40.187
73306;BME280;61530;51.158;0.880;2023-05-12T03:21:59;1016.05;;;10.0625;41.8704
73306;BME280;61530;51.158;0.880;2023-05-12T03:23:03;1016.03;;;10.125;40.854
73306;BME280;61530;51.158;0.880;2023-05-12T03:24:06;1016.04;;;10.1875;41.6014
73306;BME280;61530;51.158;0.880;2023-05-12T03:25:10;1015.99;;;10.1875;40.986
73306;BME280;61530;51.158;0.880;2023-05-12T03:26:15;1016.03;;;10.25;41.5446
73306;BME280;61530;51.158;0.880;2023-05-12T03:27:19;1016.03;;;10.25;41.2743
73306;BME280;61530;51.158;0.880;2023-05-12T03:28:22;1016.01;;;10.3125;40.4114
73306;BME280;61530;51.158;0.880;2023-05-12T03:29:25;1016.02;;;10.3125;41.2447
73306;BME280;61530;51.158;0.880;2023-05-12T03:30:31;1016.03;;;10.1875;40.4171
73306;BME280;61530;51.158;0.880;2023-05-12T03:31:35;1016.05;;;10.3125;40.7905
73306;BME280;61530;51.158;0.880;2023-05-12T03:32:38;1016.05;;;10.25;41.5842
73306;BME280;61530;51.158;0.880;2023-05-12T03:33:41;1016.06;;;10.25;40.5726
73306;BME280;61530;51.158;0.880;2023-05-12T03:34:47;1016.05;;;10.375;39.9335
73306;BME280;61530;51.158;0.880;2023-05-12T03:35:50;1016.03;;;10.375;39.6337
73306;BME280;61530;51.158;0.880;2023-05-12T03:36:54;1016.01;;;10.3125;40.014
73306;BME280;61530;51.158;0.880;2023-05-12T03:37:57;1016.01;;;10.375;39.6454
73306;BME280;61530;51.158;0.880;2023-05-12T03:39:03;1016.0;;;10.5;39.7605
73306;BME280;61530;51.158;0.880;2023-05-12T03:40:08;1015.92;;;10.4375;40.854
73306;BME280;61530;51.158;0.880;2023-05-12T03:41:10;1015.98;;;10.4375;39.5707
73306;BME280;61530;51.158;0.880;2023-05-12T03:42:14;1015.97;;;10.375;39.1324
73306;BME280;61530;51.158;0.880;2023-05-12T03:43:19;1015.91;;;10.5;39.3856
73306;BME280;61530;51.158;0.880;2023-05-12T03:44:22;1015.93;;;10.5;39.0508
73306;BME280;61530;51.158;0.880;2023-05-12T03:45:26;1015.94;;;10.4375;39.0104
73306;BME280;61530;51.158;0.880;2023-05-12T03:46:29;1015.93;;;10.4375;38.5787
73306;BME280;61530;51.158;0.880;2023-05-12T03:47:35;1015.93;;;10.5;39.472
73306;BME280;61530;51.158;0.880;2023-05-12T03:48:39;1015.94;;;10.4375;39.0452
73306;BME280;61530;51.158;0.880;2023-05-12T03:49:42;1015.93;;;10.4375;38.8665
73306;BME280;61530;51.158;0.880;2023-05-12T03:50:45;1015.94;;;10.5;38.0937
73306;BME280;61530;51.158;0.880;2023-05-12T03:51:51;1015.95;;;10.5;38.7449
73306;BME280;61530;51.158;0.880;2023-05-12T03:52:54;1015.92;;;10.5;38.8262
73306;BME280;61530;51.158;0.880;2023-05-12T03:53:58;1015.91;;;10.5;38.475
73306;BME280;61530;51.158;0.880;2023-05-12T03:55:01;1015.92;;;10.5;39.3451
73306;BME280;61530;51.158;0.880;2023-05-12T03:56:07;1015.94;;;10.4375;38.7166
73306;BME280;61530;51.158;0.880;2023-05-12T03:57:11;1015.93;;;10.4375;39.587
73306;BME280;61530;51.158;0.880;2023-05-12T03:58:14;1015.93;;;10.5625;38.9404
73306;BME280;61530;51.158;0.880;2023-05-12T03:59:17;1015.92;;;10.5625;38.2772
73306;BME280;61530;51.158;0.880;2023-05-12T04:00:23;1015.9;;;10.5625;38.2547
73306;BME280;61530;51.158;0.880;2023-05-12T04:01:26;1015.87;;;10.5;38.5549
73306;BME280;61530;51.158;0.880;2023-05-12T04:02:30;1015.92;;;10.5;39.4255
73306;BME280;61530;51.158;0.880;2023-05-12T04:03:33;1015.92;;;10.5625;39.4723
73306;BME280;61530;51.158;0.880;2023-05-12T04:04:39;1015.94;;;10.625;38.5434
73306;BME280;61530;51.158;0.880;2023-05-12T04:05:43;1015.93;;;10.625;38.8893
73306;BME280;61530;51.158;0.880;2023-05-12T04:06:46;1015.94;;;10.5625;39.4545
73306;BME280;61530;51.158;0.880;2023-05-12T04:07:50;1016.0;;;10.5625;38.948
73306;BME280;61530;51.158;0.880;2023-05-12T04:08:55;1015.94;;;10.5;39.3452
73306;BME280;61530;51.158;0.880;2023-05-12T04:09:59;1015.97;;;10.5625;38.8431
73306;BME280;61530;51.158;0.880;2023-05-12T04:11:03;1016.01;;;10.625;39.4492
73306;BME280;61530;51.158;0.880;2023-05-12T04:12:06;1016.01;;;10.5625;39.0811
73306;BME280;61530;51.158;0.880;2023-05-12T04:13:11;1015.98;;;10.625;39.6111
73306;BME280;61530;51.158;0.880;2023-05-12T04:14:14;1016.03;;;10.5;40.1639
73306;BME280;61530;51.158;0.880;2023-05-12T04:15:18;1016.04;;;10.5;39.8065
73306;BME280;61530;51.158;0.880;2023-05-12T04:16:21;1016.0;;;10.625;39.8237
73306;BME280;61530;51.158;0.880;2023-05-12T04:17:27;1016.04;;;10.5625;39.4662
73306;BME280;61530;51.158;0.880;2023-05-12T04:18:30;1016.06;;;10.625;39.662
73306;BME280;61530;51.158;0.880;2023-05-12T04:19:34;1016.06;;;10.6875;39.0919
73306;BME280;61530;51.158;0.880;2023-05-12T04:20:37;1016.07;;;10.6875;39.1198
73306;BME280;61530;51.158;0.880;2023-05-12T04:21:43;1016.04;;;10.625;38.9178
73306;BME280;61530;51.158;0.880;2023-05-12T04:22:47;1016.09;;;10.6875;38.5077
73306;BME280;61530;51.158;0.880;2023-05-12T04:23:50;1016.1;;;10.625;38.8253
73306;BME280;61530;51.158;0.880;2023-05-12T04:24:53;1016.08;;;10.625;40.9073
73306;BME280;61530;51.158;0.880;2023-05-12T04:26:02;1016.07;;;10.6875;40.7338
73306;BME280;61530;51.158;0.880;2023-05-12T04:27:03;1016.11;;;10.6875;39.0294
73306;BME280;61530;51.158;0.880;2023-05-12T04:28:06;1016.05;;;10.6875;39.9509
73306;BME280;61530;51.158;0.880;2023-05-12T04:29:09;1016.1;;;10.625;39.928
73306;BME280;61530;51.158;0.880;2023-05-12T04:30:15;1016.13;;;10.6875;40.3366
73306;BME280;61530;51.158;0.880;2023-05-12T04:31:19;1016.15;;;10.6875;40.7628
73306;BME280;61530;51.158;0.880;2023-05-12T04:32:22;1016.13;;;10.625;38.8156
73306;BME280;61530;51.158;0.880;2023-05-12T04:33:25;1016.17;;;10.75;40.256
73306;BME280;61530;51.158;0.880;2023-05-12T04:34:31;1016.16;;;10.75;39.7892
73306;BME280;61530;51.158;0.880;2023-05-12T04:35:35;1016.15;;;10.625;39.0968
73306;BME280;61530;51.158;0.880;2023-05-12T04:36:38;1016.15;;;10.6875;39.0911
73306;BME280;61530;51.158;0.880;2023-05-12T04:37:41;1016.16;;;10.6875;38.9239
73306;BME280;61530;51.158;0.880;2023-05-12T04:38:47;1016.19;;;10.75;39.3511
73306;BME280;61530;51.158;0.880;2023-05-12T04:39:51;1016.14;;;10.625;38.976
73306;BME280;61530;51.158;0.880;2023-05-12T04:40:57;1016.17;;;10.625;37.7806
73306;BME280;61530;51.158;0.880;2023-05-12T04:41:59;1016.13;;;10.75;37.2972
73306;BME280;61530;51.158;0.880;2023-05-12T04:43:03;1016.19;;;10.6875;39.8237
73306;BME280;61530;51.158;0.880;2023-05-12T04:44:06;1016.21;;;10.6875;39.6048
73306;BME280;61530;51.158;0.880;2023-05-12T04:45:11;1016.22;;;10.6875;38.9127
73306;BME280;61530;51.158;0.880;2023-05-12T04:46:13;1016.24;;;10.6875;39.0282
73306;BME280;61530;51.158;0.880;2023-05-12T04:47:19;1016.22;;;10.6875;40.0603
73306;BME280;61530;51.158;0.880;2023-05-12T04:48:23;1016.25;;;10.6875;39.743
73306;BME280;61530;51.158;0.880;2023-05-12T04:49:26;1016.25;;;10.6875;39.8007
73306;BME280;61530;51.158;0.880;2023-05-12T04:50:29;1016.31;;;10.6875;40.0255
73306;BME280;61530;51.158;0.880;2023-05-12T04:51:35;1016.31;;;10.75;39.7144
73306;BME280;61530;51.158;0.880;2023-05-12T04:52:38;1016.3;;;10.6875;39.4318
73306;BME280;61530;51.158;0.880;2023-05-12T04:53:42;1016.32;;;10.75;38.8724
73306;BME280;61530;51.158;0.880;2023-05-12T04:54:45;1016.32;;;10.8125;39.6107
73306;BME280;61530;51.158;0.880;2023-05-12T04:55:51;1016.3;;;10.8125;37.7308
73306;BME280;61530;51.158;0.880;2023-05-12T04:56:55;1016.35;;;10.75;40.1523
73306;BME280;61530;51.158;0.880;2023-05-12T04:57:58;1016.33;;;10.75;40.3769
73306;BME280;61530;51.158;0.880;2023-05-12T04:59:02;1016.36;;;10.75;39.7779
73306;BME280;61530;51.158;0.880;2023-05-12T05:00:08;1016.38;;;10.8125;39.7315
73306;BME280;61530;51.158;0.880;2023-05-12T05:01:10;1016.38;;;10.75;38.7743
73306;BME280;61530;51.158;0.880;2023-05-12T05:02:14;1016.37;;;10.8125;40.1697
73306;BME280;61530;51.158;0.880;2023-05-12T05:03:17;1016.38;;;10.8125;37.9099
73306;BME280;61530;51.158;0.880;2023-05-12T05:04:23;1016.42;;;10.8125;39.7317
73306;BME280;61530;51.158;0.880;2023-05-12T05:05:27;1016.41;;;10.75;40.2099
73306;BME280;61530;51.158;0.880;2023-05-12T05:06:30;1016.42;;;10.75;39.4497
73306;BME280;61530;51.158;0.880;2023-05-12T05:07:33;1016.41;;;10.75;39.8358
73306;BME280;61530;51.158;0.880;2023-05-12T05:08:39;1016.47;;;10.6875;39.7145
73306;BME280;61530;51.158;0.880;2023-05-12T05:09:42;1016.51;;;10.75;39.4089
73306;BME280;61530;51.158;0.880;2023-05-12T05:10:46;1016.5;;;10.8125;38.937
73306;BME280;61530;51.158;0.880;2023-05-12T05:11:49;1016.51;;;10.8125;39.9046
73306;BME280;61530;51.158;0.880;2023-05-12T05:12:55;1016.52;;;10.875;38.9879
73306;BME280;61530;51.158;0.880;2023-05-12T05:13:59;1016.54;;;10.75;38.8336
73306;BME280;61530;51.158;0.880;2023-05-12T05:15:03;1016.55;;;10.75;38.1582
73306;BME280;61530;51.158;0.880;2023-05-12T05:16:06;1016.6;;;10.75;39.6627
73306;BME280;61530;51.158;0.880;2023-05-12T05:17:11;1016.6;;;10.75;40.7964
73306;BME280;61530;51.158;0.880;2023-05-12T05:18:14;1016.62;;;10.75;40.4805
73306;BME280;61530;51.158;0.880;2023-05-12T05:19:18;1016.66;;;10.6875;39.8931
73306;BME280;61530;51.158;0.880;2023-05-12T05:20:21;1016.66;;;10.75;39.5475
73306;BME280;61530;51.158;0.880;2023-05-12T05:21:27;1016.68;;;10.75;39.6858
73306;BME280;61530;51.158;0.880;2023-05-12T05:22:31;1016.68;;;10.8125;40.1523
73306;BME280;61530;51.158;0.880;2023-05-12T05:23:34;1016.66;;;10.75;37.4886
73306;BME280;61530;51.158;0.880;2023-05-12T05:24:37;1016.7;;;10.875;39.2877
73306;BME280;61530;51.158;0.880;2023-05-12T05:25:43;1016.7;;;10.75;38.2389
73306;BME280;61530;51.158;0.880;2023-05-12T05:26:46;1016.74;;;10.75;39.3514
73306;BME280;61530;51.158;0.880;2023-05-12T05:27:50;1016.76;;;10.625;38.6362
73306;BME280;61530;51.158;0.880;2023-05-12T05:28:53;1016.76;;;10.8125;39.0797
73306;BME280;61530;51.158;0.880;2023-05-12T05:29:59;1016.75;;;10.75;40.3596
73306;BME280;61530;51.158;0.880;2023-05-12T05:31:03;1016.78;;;10.75;38.3717